sensor_id;sensor_type;location;lat;lon;timestamp;P1;durP1;ratioP1;P2;durP2;ratioP2
75021;SDS011;63583;49.976;20.182;2023-04-01T00:00:30;1.45;;;0.90;;
75021;SDS011;63583;49.976;20.182;2023-04-01T00:03:13;1.05;;;0.60;;
75021;SDS011;63583;49.976;20.182;2023-04-01T00:05:39;1.67;;;0.70;;
75021;SDS011;63583;49.976;20.182;2023-04-01T00:08:05;1.83;;;0.60;;
75021;SDS011;63583;49.976;20.182;2023-04-01T00:10:31;2.33;;;0.70;;
75021;SDS011;63583;49.976;20.182;2023-04-01T00:12:56;2.00;;;0.47;;
75021;SDS011;63583;49.976;20.182;2023-04-01T00:15:22;1.50;;;1.00;;
75021;SDS011;63583;49.976;20.182;2023-04-01T00:17:48;1.17;;;0.70;;
75021;SDS011;63583;49.976;20.182;2023-04-01T00:20:14;3.22;;;1.02;;
75021;SDS011;63583;49.976;20.182;2023-04-01T00:22:40;2.08;;;0.80;;
75021;SDS011;63583;49.976;20.182;2023-04-01T00:25:06;1.92;;;1.08;;
75021;SDS011;63583;49.976;20.182;2023-04-01T00:27:32;1.50;;;0.70;;
75021;SDS011;63583;49.976;20.182;2023-04-01T00:29:58;1.35;;;0.65;;
75021;SDS011;63583;49.976;20.182;2023-04-01T00:32:23;2.50;;;1.13;;
75021;SDS011;63583;49.976;20.182;2023-04-01T00:34:50;2.65;;;0.90;;
75021;SDS011;63583;49.976;20.182;2023-04-01T00:37:17;1.25;;;0.70;;
75021;SDS011;63583;49.976;20.182;2023-04-01T00:39:43;2.05;;;1.13;;
75021;SDS011;63583;49.976;20.182;2023-04-01T00:42:09;1.48;;;0.80;;
75021;SDS011;63583;49.976;20.182;2023-04-01T00:44:36;1.73;;;0.98;;
75021;SDS011;63583;49.976;20.182;2023-04-01T00:47:02;2.67;;;0.85;;
75021;SDS011;63583;49.976;20.182;2023-04-01T00:49:32;2.55;;;0.90;;
75021;SDS011;63583;49.976;20.182;2023-04-01T00:52:02;1.70;;;0.75;;
75021;SDS011;63583;49.976;20.182;2023-04-01T00:54:29;2.13;;;1.02;;
75021;SDS011;63583;49.976;20.182;2023-04-01T00:56:57;3.63;;;1.10;;
75021;SDS011;63583;49.976;20.182;2023-04-01T00:59:37;4.03;;;1.42;;
75021;SDS011;63583;49.976;20.182;2023-04-01T01:02:07;3.40;;;1.10;;
75021;SDS011;63583;49.976;20.182;2023-04-01T01:04:35;2.25;;;1.00;;
75021;SDS011;63583;49.976;20.182;2023-04-01T01:12:40;1.60;;;0.85;;
75021;SDS011;63583;49.976;20.182;2023-04-01T01:15:30;0.95;;;0.70;;
75021;SDS011;63583;49.976;20.182;2023-04-01T01:18:03;1.73;;;1.00;;
75021;SDS011;63583;49.976;20.182;2023-04-01T01:37:32;3.55;;;1.60;;
75021;SDS011;63583;49.976;20.182;2023-04-01T01:40:00;4.88;;;1.77;;
75021;SDS011;63583;49.976;20.182;2023-04-01T01:42:28;6.25;;;2.20;;
75021;SDS011;63583;49.976;20.182;2023-04-01T01:44:56;3.10;;;1.35;;
75021;SDS011;63583;49.976;20.182;2023-04-01T01:47:25;2.75;;;1.10;;
75021;SDS011;63583;49.976;20.182;2023-04-01T01:49:52;1.58;;;1.00;;
75021;SDS011;63583;49.976;20.182;2023-04-01T01:52:19;4.47;;;1.63;;
75021;SDS011;63583;49.976;20.182;2023-04-01T01:54:51;4.32;;;1.73;;
75021;SDS011;63583;49.976;20.182;2023-04-01T01:57:20;4.03;;;1.85;;
75021;SDS011;63583;49.976;20.182;2023-04-01T01:59:50;4.03;;;1.63;;
75021;SDS011;63583;49.976;20.182;2023-04-01T02:02:19;3.05;;;1.13;;
75021;SDS011;63583;49.976;20.182;2023-04-01T02:04:46;1.48;;;0.90;;
75021;SDS011;63583;49.976;20.182;2023-04-01T02:07:20;2.72;;;1.00;;
75021;SDS011;63583;49.976;20.182;2023-04-01T02:09:50;1.55;;;0.93;;
75021;SDS011;63583;49.976;20.182;2023-04-01T02:12:17;3.50;;;1.00;;
75021;SDS011;63583;49.976;20.182;2023-04-01T02:17:22;2.25;;;1.08;;
75021;SDS011;63583;49.976;20.182;2023-04-01T02:19:53;3.30;;;1.30;;
75021;SDS011;63583;49.976;20.182;2023-04-01T02:22:24;2.05;;;1.00;;
75021;SDS011;63583;49.976;20.182;2023-04-01T02:24:55;2.42;;;1.08;;
75021;SDS011;63583;49.976;20.182;2023-04-01T02:27:24;1.92;;;0.82;;
75021;SDS011;63583;49.976;20.182;2023-04-01T02:29:51;3.95;;;1.02;;
75021;SDS011;63583;49.976;20.182;2023-04-01T02:32:17;1.90;;;1.00;;
75021;SDS011;63583;49.976;20.182;2023-04-01T02:34:44;1.27;;;0.85;;
75021;SDS011;63583;49.976;20.182;2023-04-01T02:37:11;1.92;;;0.80;;
75021;SDS011;63583;49.976;20.182;2023-04-01T02:39:38;1.15;;;0.70;;
75021;SDS011;63583;49.976;20.182;2023-04-01T02:42:03;2.03;;;0.70;;
75021;SDS011;63583;49.976;20.182;2023-04-01T02:44:29;1.25;;;0.80;;
75021;SDS011;63583;49.976;20.182;2023-04-01T02:46:55;2.35;;;1.08;;
75021;SDS011;63583;49.976;20.182;2023-04-01T02:49:20;2.63;;;0.95;;
75021;SDS011;63583;49.976;20.182;2023-04-01T02:51:46;2.08;;;0.85;;
75021;SDS011;63583;49.976;20.182;2023-04-01T02:54:12;2.55;;;1.15;;
75021;SDS011;63583;49.976;20.182;2023-04-01T02:56:37;2.63;;;1.20;;
75021;SDS011;63583;49.976;20.182;2023-04-01T02:59:03;2.88;;;0.95;;
75021;SDS011;63583;49.976;20.182;2023-04-01T03:01:29;1.33;;;0.80;;
75021;SDS011;63583;49.976;20.182;2023-04-01T03:03:55;1.33;;;0.85;;
75021;SDS011;63583;49.976;20.182;2023-04-01T03:06:20;1.60;;;0.88;;
75021;SDS011;63583;49.976;20.182;2023-04-01T03:08:46;1.80;;;0.80;;
75021;SDS011;63583;49.976;20.182;2023-04-01T03:11:12;1.65;;;0.70;;
75021;SDS011;63583;49.976;20.182;2023-04-01T03:13:38;2.72;;;1.08;;
75021;SDS011;63583;49.976;20.182;2023-04-01T03:16:03;3.63;;;1.00;;
75021;SDS011;63583;49.976;20.182;2023-04-01T03:18:30;2.80;;;0.98;;
75021;SDS011;63583;49.976;20.182;2023-04-01T03:20:56;2.97;;;1.10;;
75021;SDS011;63583;49.976;20.182;2023-04-01T03:23:21;2.80;;;0.93;;
75021;SDS011;63583;49.976;20.182;2023-04-01T03:25:49;2.20;;;1.10;;
75021;SDS011;63583;49.976;20.182;2023-04-01T03:28:15;6.18;;;1.05;;
75021;SDS011;63583;49.976;20.182;2023-04-01T03:30:40;1.30;;;0.80;;
75021;SDS011;63583;49.976;20.182;2023-04-01T03:33:06;3.20;;;1.08;;
75021;SDS011;63583;49.976;20.182;2023-04-01T03:35:32;1.85;;;1.02;;
75021;SDS011;63583;49.976;20.182;2023-04-01T03:37:58;2.60;;;1.02;;
75021;SDS011;63583;49.976;20.182;2023-04-01T03:40:24;2.58;;;1.10;;
75021;SDS011;63583;49.976;20.182;2023-04-01T03:42:51;1.70;;;0.98;;
75021;SDS011;63583;49.976;20.182;2023-04-01T03:45:17;2.35;;;1.15;;
75021;SDS011;63583;49.976;20.182;2023-04-01T03:47:43;2.38;;;0.85;;
75021;SDS011;63583;49.976;20.182;2023-04-01T03:50:09;1.27;;;0.90;;
75021;SDS011;63583;49.976;20.182;2023-04-01T03:55:03;1.92;;;1.08;;
75021;SDS011;63583;49.976;20.182;2023-04-01T03:57:32;2.05;;;1.30;;
75021;SDS011;63583;49.976;20.182;2023-04-01T03:59:58;2.53;;;1.10;;
75021;SDS011;63583;49.976;20.182;2023-04-01T04:02:24;4.65;;;1.40;;
75021;SDS011;63583;49.976;20.182;2023-04-01T04:04:50;2.38;;;1.30;;
75021;SDS011;63583;49.976;20.182;2023-04-01T04:07:15;2.65;;;1.10;;
75021;SDS011;63583;49.976;20.182;2023-04-01T04:09:41;1.73;;;0.95;;
75021;SDS011;63583;49.976;20.182;2023-04-01T04:12:07;1.70;;;1.00;;
75021;SDS011;63583;49.976;20.182;2023-04-01T04:14:32;2.20;;;1.08;;
75021;SDS011;63583;49.976;20.182;2023-04-01T04:16:58;2.13;;;1.05;;
75021;SDS011;63583;49.976;20.182;2023-04-01T04:19:23;3.35;;;0.93;;
75021;SDS011;63583;49.976;20.182;2023-04-01T04:21:49;4.63;;;1.23;;
75021;SDS011;63583;49.976;20.182;2023-04-01T04:24:15;2.53;;;1.00;;
75021;SDS011;63583;49.976;20.182;2023-04-01T04:26:40;1.63;;;0.93;;
75021;SDS011;63583;49.976;20.182;2023-04-01T04:29:06;1.67;;;0.90;;
75021;SDS011;63583;49.976;20.182;2023-04-01T04:31:32;1.83;;;0.90;;
75021;SDS011;63583;49.976;20.182;2023-04-01T04:33:58;3.00;;;1.17;;
75021;SDS011;63583;49.976;20.182;2023-04-01T04:36:25;1.73;;;1.10;;
75021;SDS011;63583;49.976;20.182;2023-04-01T04:38:50;2.88;;;1.48;;
75021;SDS011;63583;49.976;20.182;2023-04-01T04:41:17;4.90;;;1.40;;
75021;SDS011;63583;49.976;20.182;2023-04-01T04:43:48;3.00;;;1.35;;
75021;SDS011;63583;49.976;20.182;2023-04-01T04:46:16;3.25;;;1.23;;
75021;SDS011;63583;49.976;20.182;2023-04-01T04:48:42;2.00;;;1.20;;
75021;SDS011;63583;49.976;20.182;2023-04-01T04:51:12;3.20;;;1.13;;
75021;SDS011;63583;49.976;20.182;2023-04-01T04:53:39;3.72;;;1.48;;
75021;SDS011;63583;49.976;20.182;2023-04-01T04:56:05;3.80;;;1.08;;
75021;SDS011;63583;49.976;20.182;2023-04-01T04:58:31;2.42;;;1.17;;
75021;SDS011;63583;49.976;20.182;2023-04-01T05:00:57;2.88;;;1.23;;
75021;SDS011;63583;49.976;20.182;2023-04-01T05:03:22;3.20;;;1.05;;
75021;SDS011;63583;49.976;20.182;2023-04-01T05:05:51;2.08;;;1.10;;
75021;SDS011;63583;49.976;20.182;2023-04-01T05:08:18;3.08;;;0.90;;
75021;SDS011;63583;49.976;20.182;2023-04-01T05:10:44;1.80;;;1.00;;
75021;SDS011;63583;49.976;20.182;2023-04-01T05:13:10;2.63;;;1.25;;
75021;SDS011;63583;49.976;20.182;2023-04-01T05:15:36;4.07;;;1.30;;
75021;SDS011;63583;49.976;20.182;2023-04-01T05:18:02;2.50;;;1.27;;
75021;SDS011;63583;49.976;20.182;2023-04-01T05:20:28;3.38;;;0.93;;
75021;SDS011;63583;49.976;20.182;2023-04-01T05:22:57;2.42;;;1.20;;
75021;SDS011;63583;49.976;20.182;2023-04-01T05:25:24;2.03;;;1.10;;
75021;SDS011;63583;49.976;20.182;2023-04-01T05:27:49;2.90;;;1.20;;
75021;SDS011;63583;49.976;20.182;2023-04-01T05:30:15;3.00;;;1.70;;
75021;SDS011;63583;49.976;20.182;2023-04-01T05:32:41;2.65;;;1.13;;
75021;SDS011;63583;49.976;20.182;2023-04-01T05:35:07;2.78;;;1.40;;
75021;SDS011;63583;49.976;20.182;2023-04-01T05:37:36;2.78;;;1.20;;
75021;SDS011;63583;49.976;20.182;2023-04-01T05:40:02;1.88;;;1.10;;
75021;SDS011;63583;49.976;20.182;2023-04-01T05:42:28;3.58;;;1.10;;
75021;SDS011;63583;49.976;20.182;2023-04-01T05:44:54;2.00;;;1.10;;
75021;SDS011;63583;49.976;20.182;2023-04-01T05:47:21;1.50;;;0.95;;
75021;SDS011;63583;49.976;20.182;2023-04-01T05:49:47;2.03;;;1.10;;
75021;SDS011;63583;49.976;20.182;2023-04-01T05:52:13;2.38;;;1.10;;
75021;SDS011;63583;49.976;20.182;2023-04-01T05:54:39;2.83;;;1.10;;
75021;SDS011;63583;49.976;20.182;2023-04-01T05:57:04;2.63;;;1.13;;
75021;SDS011;63583;49.976;20.182;2023-04-01T05:59:30;2.13;;;1.10;;
75021;SDS011;63583;49.976;20.182;2023-04-01T06:02:00;2.03;;;1.00;;
75021;SDS011;63583;49.976;20.182;2023-04-01T06:04:26;2.42;;;1.15;;
75021;SDS011;63583;49.976;20.182;2023-04-01T06:06:57;2.20;;;0.98;;
75021;SDS011;63583;49.976;20.182;2023-04-01T06:09:26;2.97;;;1.20;;
75021;SDS011;63583;49.976;20.182;2023-04-01T06:20:46;2.92;;;1.42;;
75021;SDS011;63583;49.976;20.182;2023-04-01T06:23:28;3.03;;;1.30;;
75021;SDS011;63583;49.976;20.182;2023-04-01T06:37:29;2.60;;;1.10;;
75021;SDS011;63583;49.976;20.182;2023-04-01T06:42:53;1.50;;;0.80;;
75021;SDS011;63583;49.976;20.182;2023-04-01T06:45:41;2.08;;;1.17;;
75021;SDS011;63583;49.976;20.182;2023-04-01T06:56:25;3.83;;;1.20;;
75021;SDS011;63583;49.976;20.182;2023-04-01T06:58:54;2.25;;;1.08;;
75021;SDS011;63583;49.976;20.182;2023-04-01T07:01:26;2.50;;;1.10;;
75021;SDS011;63583;49.976;20.182;2023-04-01T07:06:36;2.53;;;1.17;;
75021;SDS011;63583;49.976;20.182;2023-04-01T07:09:12;2.50;;;1.00;;
75021;SDS011;63583;49.976;20.182;2023-04-01T07:11:41;4.55;;;1.05;;
75021;SDS011;63583;49.976;20.182;2023-04-01T07:14:19;3.10;;;1.10;;
75021;SDS011;63583;49.976;20.182;2023-04-01T07:16:59;3.42;;;1.00;;
75021;SDS011;63583;49.976;20.182;2023-04-01T07:22:26;2.90;;;1.33;;
75021;SDS011;63583;49.976;20.182;2023-04-01T07:24:56;2.83;;;1.10;;
75021;SDS011;63583;49.976;20.182;2023-04-01T07:27:26;1.73;;;1.00;;
75021;SDS011;63583;49.976;20.182;2023-04-01T07:29:52;4.00;;;1.25;;
75021;SDS011;63583;49.976;20.182;2023-04-01T07:37:39;2.65;;;1.40;;
75021;SDS011;63583;49.976;20.182;2023-04-01T07:42:57;2.03;;;1.05;;
75021;SDS011;63583;49.976;20.182;2023-04-01T07:45:43;3.75;;;1.40;;
75021;SDS011;63583;49.976;20.182;2023-04-01T07:53:48;2.10;;;1.25;;
75021;SDS011;63583;49.976;20.182;2023-04-01T08:02:06;4.45;;;1.45;;
75021;SDS011;63583;49.976;20.182;2023-04-01T08:13:13;2.13;;;1.20;;
75021;SDS011;63583;49.976;20.182;2023-04-01T08:15:49;2.53;;;1.13;;
75021;SDS011;63583;49.976;20.182;2023-04-01T08:20:56;3.13;;;1.30;;
75021;SDS011;63583;49.976;20.182;2023-04-01T08:23:30;3.25;;;1.40;;
75021;SDS011;63583;49.976;20.182;2023-04-01T08:28:40;2.55;;;1.35;;
75021;SDS011;63583;49.976;20.182;2023-04-01T08:33:55;1.75;;;1.00;;
75021;SDS011;63583;49.976;20.182;2023-04-01T08:36:37;1.77;;;1.08;;
75021;SDS011;63583;49.976;20.182;2023-04-01T08:39:28;2.22;;;1.17;;
75021;SDS011;63583;49.976;20.182;2023-04-01T08:50:26;4.30;;;1.63;;
75021;SDS011;63583;49.976;20.182;2023-04-01T08:56:39;4.63;;;1.77;;
75021;SDS011;63583;49.976;20.182;2023-04-01T09:02:13;3.53;;;1.33;;
75021;SDS011;63583;49.976;20.182;2023-04-01T09:05:04;5.38;;;1.30;;
75021;SDS011;63583;49.976;20.182;2023-04-01T09:10:53;2.30;;;1.30;;
75021;SDS011;63583;49.976;20.182;2023-04-01T09:18:55;2.65;;;1.25;;
75021;SDS011;63583;49.976;20.182;2023-04-01T09:24:30;2.70;;;1.27;;
75021;SDS011;63583;49.976;20.182;2023-04-01T09:35:47;3.65;;;1.50;;
75021;SDS011;63583;49.976;20.182;2023-04-01T09:38:30;3.40;;;1.75;;
75021;SDS011;63583;49.976;20.182;2023-04-01T09:43:47;1.60;;;0.93;;
75021;SDS011;63583;49.976;20.182;2023-04-01T09:59:49;2.08;;;1.17;;
75021;SDS011;63583;49.976;20.182;2023-04-01T10:02:50;2.63;;;1.40;;
75021;SDS011;63583;49.976;20.182;2023-04-01T10:08:26;2.00;;;1.25;;
75021;SDS011;63583;49.976;20.182;2023-04-01T10:12:08;2.67;;;1.15;;
75021;SDS011;63583;49.976;20.182;2023-04-01T10:25:10;2.70;;;1.25;;
75021;SDS011;63583;49.976;20.182;2023-04-01T10:33:38;2.70;;;1.45;;
75021;SDS011;63583;49.976;20.182;2023-04-01T10:42:22;3.13;;;1.80;;
75021;SDS011;63583;49.976;20.182;2023-04-01T10:45:20;5.18;;;1.55;;
75021;SDS011;63583;49.976;20.182;2023-04-01T10:59:10;5.55;;;2.70;;
75021;SDS011;63583;49.976;20.182;2023-04-01T11:07:49;4.70;;;2.20;;
75021;SDS011;63583;49.976;20.182;2023-04-01T11:27:23;4.25;;;1.85;;
75021;SDS011;63583;49.976;20.182;2023-04-01T11:29:59;4.20;;;1.73;;
75021;SDS011;63583;49.976;20.182;2023-04-01T11:41:12;2.90;;;1.65;;
75021;SDS011;63583;49.976;20.182;2023-04-01T11:50:08;2.78;;;1.52;;
75021;SDS011;63583;49.976;20.182;2023-04-01T11:52:52;2.50;;;1.35;;
75021;SDS011;63583;49.976;20.182;2023-04-01T11:55:28;2.97;;;1.45;;
75021;SDS011;63583;49.976;20.182;2023-04-01T12:05:54;4.97;;;1.75;;
75021;SDS011;63583;49.976;20.182;2023-04-01T12:08:31;3.67;;;1.75;;
75021;SDS011;63583;49.976;20.182;2023-04-01T12:11:09;2.95;;;1.73;;
75021;SDS011;63583;49.976;20.182;2023-04-01T12:13:58;2.17;;;1.38;;
75021;SDS011;63583;49.976;20.182;2023-04-01T12:17:07;4.28;;;1.77;;
75021;SDS011;63583;49.976;20.182;2023-04-01T12:34:13;4.25;;;2.00;;
75021;SDS011;63583;49.976;20.182;2023-04-01T12:45:19;5.25;;;2.08;;
75021;SDS011;63583;49.976;20.182;2023-04-01T12:56:31;7.80;;;4.63;;
75021;SDS011;63583;49.976;20.182;2023-04-01T13:01:54;4.05;;;2.17;;
75021;SDS011;63583;49.976;20.182;2023-04-01T13:07:40;4.18;;;2.08;;
75021;SDS011;63583;49.976;20.182;2023-04-01T13:29:38;11.07;;;4.32;;
75021;SDS011;63583;49.976;20.182;2023-04-01T13:35:00;5.43;;;3.45;;
75021;SDS011;63583;49.976;20.182;2023-04-01T13:37:39;5.25;;;2.83;;
75021;SDS011;63583;49.976;20.182;2023-04-01T13:53:59;11.95;;;6.57;;
75021;SDS011;63583;49.976;20.182;2023-04-01T13:59:16;12.30;;;4.78;;
75021;SDS011;63583;49.976;20.182;2023-04-01T14:10:43;4.22;;;1.55;;
75021;SDS011;63583;49.976;20.182;2023-04-01T14:13:17;2.58;;;1.50;;
75021;SDS011;63583;49.976;20.182;2023-04-01T14:29:02;5.68;;;2.45;;
75021;SDS011;63583;49.976;20.182;2023-04-01T14:34:19;5.10;;;2.63;;
75021;SDS011;63583;49.976;20.182;2023-04-01T14:36:54;8.45;;;3.05;;
75021;SDS011;63583;49.976;20.182;2023-04-01T14:39:33;2.65;;;1.58;;
75021;SDS011;63583;49.976;20.182;2023-04-01T14:42:18;10.50;;;4.65;;
75021;SDS011;63583;49.976;20.182;2023-04-01T14:45:26;5.75;;;2.25;;
75021;SDS011;63583;49.976;20.182;2023-04-01T14:52:40;20.00;;;8.05;;
75021;SDS011;63583;49.976;20.182;2023-04-01T14:55:33;12.13;;;4.55;;
75021;SDS011;63583;49.976;20.182;2023-04-01T14:58:14;15.68;;;9.77;;
75021;SDS011;63583;49.976;20.182;2023-04-01T15:00:46;7.13;;;3.53;;
75021;SDS011;63583;49.976;20.182;2023-04-01T15:03:18;5.63;;;2.78;;
75021;SDS011;63583;49.976;20.182;2023-04-01T15:06:12;14.40;;;7.47;;
75021;SDS011;63583;49.976;20.182;2023-04-01T15:09:03;15.40;;;6.78;;
75021;SDS011;63583;49.976;20.182;2023-04-01T15:11:49;5.80;;;3.75;;
75021;SDS011;63583;49.976;20.182;2023-04-01T15:20:10;32.15;;;13.68;;
75021;SDS011;63583;49.976;20.182;2023-04-01T15:39:41;13.65;;;5.97;;
75021;SDS011;63583;49.976;20.182;2023-04-01T15:42:19;6.15;;;3.55;;
75021;SDS011;63583;49.976;20.182;2023-04-01T15:47:37;11.15;;;3.92;;
75021;SDS011;63583;49.976;20.182;2023-04-01T15:53:01;7.03;;;3.28;;
75021;SDS011;63583;49.976;20.182;2023-04-01T15:55:56;10.23;;;4.63;;
75021;SDS011;63583;49.976;20.182;2023-04-01T15:58:41;6.13;;;3.10;;
75021;SDS011;63583;49.976;20.182;2023-04-01T16:07:21;5.30;;;2.50;;
75021;SDS011;63583;49.976;20.182;2023-04-01T16:23:51;5.97;;;2.85;;
75021;SDS011;63583;49.976;20.182;2023-04-01T16:26:24;5.10;;;2.58;;
75021;SDS011;63583;49.976;20.182;2023-04-01T16:37:27;5.85;;;3.33;;
75021;SDS011;63583;49.976;20.182;2023-04-01T16:40:04;10.43;;;4.30;;
75021;SDS011;63583;49.976;20.182;2023-04-01T16:45:26;9.23;;;4.55;;
75021;SDS011;63583;49.976;20.182;2023-04-01T16:50:51;6.93;;;3.25;;
75021;SDS011;63583;49.976;20.182;2023-04-01T16:59:02;10.70;;;5.32;;
75021;SDS011;63583;49.976;20.182;2023-04-01T17:04:33;11.40;;;4.65;;
75021;SDS011;63583;49.976;20.182;2023-04-01T17:12:35;7.53;;;4.45;;
75021;SDS011;63583;49.976;20.182;2023-04-01T17:15:32;11.57;;;5.32;;
75021;SDS011;63583;49.976;20.182;2023-04-01T17:23:36;12.60;;;6.80;;
75021;SDS011;63583;49.976;20.182;2023-04-01T17:29:23;8.00;;;4.07;;
75021;SDS011;63583;49.976;20.182;2023-04-01T17:37:27;10.98;;;5.10;;
75021;SDS011;63583;49.976;20.182;2023-04-01T17:40:32;13.77;;;6.05;;
75021;SDS011;63583;49.976;20.182;2023-04-01T17:45:47;10.13;;;5.45;;
75021;SDS011;63583;49.976;20.182;2023-04-01T17:57:07;8.90;;;4.55;;
75021;SDS011;63583;49.976;20.182;2023-04-01T18:02:54;11.00;;;5.55;;
75021;SDS011;63583;49.976;20.182;2023-04-01T18:14:13;13.40;;;7.13;;
75021;SDS011;63583;49.976;20.182;2023-04-01T18:16:48;22.80;;;9.15;;
75021;SDS011;63583;49.976;20.182;2023-04-01T18:22:58;12.25;;;6.10;;
75021;SDS011;63583;49.976;20.182;2023-04-01T18:25:35;12.73;;;6.57;;
75021;SDS011;63583;49.976;20.182;2023-04-01T18:30:51;31.75;;;13.77;;
75021;SDS011;63583;49.976;20.182;2023-04-01T18:33:34;17.88;;;9.25;;
75021;SDS011;63583;49.976;20.182;2023-04-01T18:36:15;11.75;;;7.47;;
75021;SDS011;63583;49.976;20.182;2023-04-01T18:39:11;15.55;;;8.13;;
75021;SDS011;63583;49.976;20.182;2023-04-01T18:42:03;14.80;;;7.03;;
75021;SDS011;63583;49.976;20.182;2023-04-01T18:44:40;13.82;;;6.88;;
75021;SDS011;63583;49.976;20.182;2023-04-01T18:47:55;13.07;;;6.53;;
75021;SDS011;63583;49.976;20.182;2023-04-01T18:53:17;8.93;;;4.78;;
75021;SDS011;63583;49.976;20.182;2023-04-01T18:56:07;15.90;;;7.25;;
75021;SDS011;63583;49.976;20.182;2023-04-01T19:01:47;24.33;;;11.57;;
75021;SDS011;63583;49.976;20.182;2023-04-01T19:04:37;30.38;;;17.35;;
75021;SDS011;63583;49.976;20.182;2023-04-01T19:09:52;14.70;;;7.68;;
75021;SDS011;63583;49.976;20.182;2023-04-01T19:15:21;13.70;;;6.75;;
75021;SDS011;63583;49.976;20.182;2023-04-01T19:26:19;9.05;;;4.22;;
75021;SDS011;63583;49.976;20.182;2023-04-01T19:31:39;13.70;;;5.90;;
75021;SDS011;63583;49.976;20.182;2023-04-01T19:48:05;13.05;;;6.57;;
75021;SDS011;63583;49.976;20.182;2023-04-01T19:50:48;16.30;;;7.25;;
75021;SDS011;63583;49.976;20.182;2023-04-01T19:53:28;14.20;;;6.00;;
75021;SDS011;63583;49.976;20.182;2023-04-01T20:01:17;14.00;;;6.50;;
75021;SDS011;63583;49.976;20.182;2023-04-01T20:03:54;13.27;;;6.60;;
75021;SDS011;63583;49.976;20.182;2023-04-01T20:09:08;10.93;;;6.75;;
75021;SDS011;63583;49.976;20.182;2023-04-01T20:11:58;18.92;;;8.23;;
75021;SDS011;63583;49.976;20.182;2023-04-01T20:14:43;13.07;;;6.80;;
75021;SDS011;63583;49.976;20.182;2023-04-01T20:17:19;12.05;;;6.30;;
75021;SDS011;63583;49.976;20.182;2023-04-01T20:20:28;22.50;;;9.80;;
75021;SDS011;63583;49.976;20.182;2023-04-01T20:22:38;21.55;;;8.90;;
75021;SDS011;63583;49.976;20.182;2023-04-01T20:28:24;12.60;;;6.43;;
75021;SDS011;63583;49.976;20.182;2023-04-01T20:33:36;13.55;;;7.75;;
75021;SDS011;63583;49.976;20.182;2023-04-01T20:39:24;18.73;;;8.00;;
75021;SDS011;63583;49.976;20.182;2023-04-01T20:48:13;18.50;;;9.07;;
75021;SDS011;63583;49.976;20.182;2023-04-01T20:50:51;26.40;;;11.48;;
75021;SDS011;63583;49.976;20.182;2023-04-01T21:13:08;17.13;;;8.98;;
75021;SDS011;63583;49.976;20.182;2023-04-01T21:18:27;20.27;;;9.48;;
75021;SDS011;63583;49.976;20.182;2023-04-01T21:32:05;17.55;;;9.00;;
75021;SDS011;63583;49.976;20.182;2023-04-01T21:35:10;22.65;;;9.50;;
75021;SDS011;63583;49.976;20.182;2023-04-01T21:37:58;17.25;;;9.13;;
75021;SDS011;63583;49.976;20.182;2023-04-01T21:40:39;16.95;;;8.68;;
75021;SDS011;63583;49.976;20.182;2023-04-01T21:43:16;17.52;;;9.20;;
75021;SDS011;63583;49.976;20.182;2023-04-01T22:09:38;20.00;;;9.88;;
75021;SDS011;63583;49.976;20.182;2023-04-01T22:14:55;25.00;;;10.07;;
75021;SDS011;63583;49.976;20.182;2023-04-01T22:20:33;17.65;;;8.75;;
75021;SDS011;63583;49.976;20.182;2023-04-01T22:23:20;16.83;;;9.18;;
75021;SDS011;63583;49.976;20.182;2023-04-01T22:25:56;18.70;;;9.32;;
75021;SDS011;63583;49.976;20.182;2023-04-01T22:28:25;19.42;;;9.57;;
75021;SDS011;63583;49.976;20.182;2023-04-01T22:31:00;19.55;;;9.82;;
75021;SDS011;63583;49.976;20.182;2023-04-01T22:36:05;16.35;;;8.38;;
75021;SDS011;63583;49.976;20.182;2023-04-01T22:43:56;17.70;;;8.13;;
75021;SDS011;63583;49.976;20.182;2023-04-01T22:49:06;18.90;;;8.45;;
75021;SDS011;63583;49.976;20.182;2023-04-01T22:51:42;17.48;;;8.18;;
75021;SDS011;63583;49.976;20.182;2023-04-01T22:54:13;16.27;;;8.13;;
75021;SDS011;63583;49.976;20.182;2023-04-01T22:59:35;20.77;;;8.77;;
75021;SDS011;63583;49.976;20.182;2023-04-01T23:02:04;16.90;;;8.15;;
75021;SDS011;63583;49.976;20.182;2023-04-01T23:04:38;18.05;;;7.65;;
75021;SDS011;63583;49.976;20.182;2023-04-01T23:07:24;20.90;;;8.40;;
75021;SDS011;63583;49.976;20.182;2023-04-01T23:10:01;18.30;;;7.53;;
75021;SDS011;63583;49.976;20.182;2023-04-01T23:12:28;16.73;;;8.30;;
75021;SDS011;63583;49.976;20.182;2023-04-01T23:15:00;19.25;;;9.00;;
75021;SDS011;63583;49.976;20.182;2023-04-01T23:20:26;20.77;;;9.55;;
75021;SDS011;63583;49.976;20.182;2023-04-01T23:23:08;21.10;;;9.45;;
75021;SDS011;63583;49.976;20.182;2023-04-01T23:38:31;18.35;;;8.98;;
75021;SDS011;63583;49.976;20.182;2023-04-01T23:40:59;18.15;;;8.18;;
75021;SDS011;63583;49.976;20.182;2023-04-01T23:43:30;20.00;;;8.98;;
75021;SDS011;63583;49.976;20.182;2023-04-01T23:46:00;20.35;;;9.10;;
75021;SDS011;63583;49.976;20.182;2023-04-01T23:48:40;22.13;;;9.48;;
75021;SDS011;63583;49.976;20.182;2023-04-01T23:51:13;18.30;;;8.98;;
75021;SDS011;63583;49.976;20.182;2023-04-01T23:53:45;21.33;;;10.00;;
75021;SDS011;63583;49.976;20.182;2023-04-01T23:56:15;24.67;;;10.00;;
